Time;durP1;ratioP1;P1;durP2;ratioP2;P2;SDS_P1;SDS_P2;PMS_P1;PMS_P2;Temp;Humidity;BMP_temperature;BMP_pressure;BME280_temperature;BME280_humidity;BME280_pressure;Samples;Min_cycle;Max_cycle;Signal;HPM_P1;HPM_P2
2023/04/12 00:01:45;;;;;;;;;8.50;8.50;;;;;14.20;63.09;98913.22;5055975;28;45368;-80
2023/04/12 00:04:15;;;;;;;;;9.25;8.50;;;;;14.18;63.22;98904.50;5055473;28;45504;-81
2023/04/12 00:06:47;;;;;;;;;9.50;8.00;;;;;14.15;63.53;98905.53;5066303;28;45384;-81
2023/04/12 00:09:15;;;;;;;;;9.25;8.50;;;;;14.15;63.65;98904.69;5064428;27;45384;-80
2023/04/12 00:11:41;;;;;;;;;8.25;7.25;;;;;14.15;63.50;98896.72;5055643;28;45384;-79
2023/04/12 00:14:06;;;;;;;;;8.50;8.50;;;;;14.15;63.78;98897.59;5053025;28;47162;-79
2023/04/12 00:16:32;;;;;;;;;13.50;10.50;;;;;14.16;63.69;98893.13;5044085;28;45370;-79
2023/04/12 00:18:58;;;;;;;;;9.00;7.75;;;;;14.15;63.66;98892.28;5042878;28;45476;-79
2023/04/12 00:21:23;;;;;;;;;11.25;9.75;;;;;14.17;63.59;98878.94;5048314;28;45465;-79
2023/04/12 00:23:49;;;;;;;;;11.00;9.75;;;;;14.18;63.72;98872.69;5069371;28;46349;-79
2023/04/12 00:26:15;;;;;;;;;11.50;8.50;;;;;14.20;63.62;98873.47;5055603;28;45349;-78
2023/04/12 00:28:41;;;;;;;;;11.25;10.00;;;;;14.20;63.56;98868.16;5051637;28;45600;-79
2023/04/12 00:31:07;;;;;;;;;8.00;8.00;;;;;14.20;63.82;98862.84;5041657;28;45556;-79
2023/04/12 00:33:33;;;;;;;;;8.50;7.25;;;;;14.22;64.12;98868.94;5058846;28;45419;-79
2023/04/12 00:35:58;;;;;;;;;9.00;9.00;;;;;14.23;63.73;98868.00;5060553;28;45434;-80
2023/04/12 00:38:24;;;;;;;;;9.50;7.50;;;;;14.25;63.83;98861.63;5055140;28;45443;-79
2023/04/12 00:40:49;;;;;;;;;10.00;9.75;;;;;14.26;63.75;98862.47;5060461;28;45346;-79
2023/04/12 00:43:17;;;;;;;;;8.00;7.00;;;;;14.25;63.82;98866.94;5075124;27;47139;-79
2023/04/12 00:45:46;;;;;;;;;5.50;5.50;;;;;14.26;63.85;98873.94;5064440;28;45482;-80
2023/04/12 00:48:11;;;;;;;;;9.00;9.00;;;;;14.24;64.02;98864.41;5045790;28;45352;-79
2023/04/12 00:50:43;;;;;;;;;11.00;10.25;;;;;14.23;64.10;98858.25;5063835;28;45337;-79
2023/04/12 00:53:16;;;;;;;;;9.00;9.00;;;;;14.22;64.52;98853.03;5059113;28;45485;-79
2023/04/12 00:55:45;;;;;;;;;9.25;8.75;;;;;14.19;64.24;98850.53;5053494;28;45436;-79
2023/04/12 00:58:11;;;;;;;;;8.00;8.00;;;;;14.15;64.26;98847.22;5076182;27;45474;-79
2023/04/12 01:00:36;;;;;;;;;7.25;7.25;;;;;14.12;64.35;98849.19;5058899;27;45566;-79
2023/04/12 01:03:04;;;;;;;;;7.75;6.75;;;;;14.07;64.70;98851.28;5059546;28;46298;-79
2023/04/12 01:05:34;;;;;;;;;7.25;7.25;;;;;14.04;64.75;98839.06;5042644;28;45504;-79
2023/04/12 01:08:35;;;;;;;;;9.00;7.75;;;;;13.98;64.99;98834.09;5066378;28;45443;-79
2023/04/12 01:11:17;;;;;;;;;9.00;8.00;;;;;13.93;64.77;98834.34;5051248;28;45456;-79
2023/04/12 01:14:06;;;;;;;;;8.25;7.00;;;;;13.89;64.76;98832.00;5050474;28;46434;-79
2023/04/12 01:16:40;;;;;;;;;7.25;7.25;;;;;13.86;64.79;98826.88;5059773;28;45566;-79
2023/04/12 01:19:28;;;;;;;;;8.50;8.50;;;;;13.83;64.91;98819.09;5061990;28;45413;-79
2023/04/12 01:22:22;;;;;;;;;7.50;5.75;;;;;13.78;65.46;98810.53;5074861;27;45575;-79
2023/04/12 01:25:02;;;;;;;;;9.25;8.50;;;;;13.74;65.76;98807.22;5053537;28;46249;-79
2023/04/12 01:27:42;;;;;;;;;7.50;7.25;;;;;13.72;65.86;98816.22;5049587;28;45451;-79
2023/04/12 01:30:11;;;;;;;;;8.75;8.75;;;;;13.68;65.68;98812.88;5060027;28;45497;-79
2023/04/12 01:32:38;;;;;;;;;7.00;6.00;;;;;13.67;66.14;98803.22;5058696;28;45390;-79
2023/04/12 01:35:07;;;;;;;;;9.25;6.25;;;;;13.67;66.01;98797.06;5052095;28;46761;-79
2023/04/12 01:37:34;;;;;;;;;9.00;7.50;;;;;13.65;65.99;98785.72;5069026;28;45531;-79
2023/04/12 01:40:00;;;;;;;;;10.50;8.75;;;;;13.63;66.17;98780.50;5053320;28;45492;-79
2023/04/12 01:42:26;;;;;;;;;7.00;7.00;;;;;13.60;66.29;98776.22;5059181;28;45490;-79
2023/04/12 01:44:51;;;;;;;;;6.75;6.75;;;;;13.59;66.15;98769.22;5066539;28;46691;-79
2023/04/12 01:47:17;;;;;;;;;8.00;8.00;;;;;13.57;66.25;98768.44;5042822;27;45406;-79
2023/04/12 01:50:10;;;;;;;;;8.75;7.75;;;;;13.55;66.45;98754.47;5054685;28;45340;-79
2023/04/12 01:52:40;;;;;;;;;8.75;8.00;;;;;13.53;66.31;98755.50;5052673;28;45440;-79
2023/04/12 01:55:06;;;;;;;;;9.00;8.75;;;;;13.51;66.64;98742.34;5060197;28;45821;-79
2023/04/12 01:57:33;;;;;;;;;7.25;7.25;;;;;13.50;66.84;98735.34;5054392;28;45567;-79
2023/04/12 02:00:01;;;;;;;;;11.00;8.50;;;;;13.47;66.61;98740.81;5072162;28;45404;-79
2023/04/12 02:02:27;;;;;;;;;9.00;9.00;;;;;13.47;66.94;98730.22;5054368;27;45435;-79
2023/04/12 02:04:54;;;;;;;;;8.25;7.00;;;;;13.47;66.99;98732.00;5071159;27;47742;-79
2023/04/12 02:07:20;;;;;;;;;10.25;8.50;;;;;13.46;67.12;98725.00;5054357;28;45562;-79
2023/04/12 02:09:46;;;;;;;;;8.00;8.00;;;;;13.46;67.03;98719.72;5042941;28;45425;-79
2023/04/12 02:12:12;;;;;;;;;8.00;8.00;;;;;13.45;66.99;98716.22;5051567;28;45784;-79
2023/04/12 02:14:37;;;;;;;;;10.75;8.50;;;;;13.42;67.06;98704.94;5051017;28;46906;-79
2023/04/12 02:17:03;;;;;;;;;12.00;9.50;;;;;13.40;67.34;98699.75;5053908;28;45459;-79
2023/04/12 02:19:31;;;;;;;;;10.25;9.00;;;;;13.39;67.57;98695.41;5053049;28;45424;-79
2023/04/12 02:21:56;;;;;;;;;10.50;10.00;;;;;13.38;67.57;98690.19;5054316;28;45409;-79
2023/04/12 02:24:22;;;;;;;;;8.25;8.25;;;;;13.39;67.57;98686.59;5061226;28;46132;-79
2023/04/12 02:26:50;;;;;;;;;9.00;7.75;;;;;13.37;67.69;98685.84;5053861;28;45400;-79
2023/04/12 02:29:16;;;;;;;;;6.50;6.25;;;;;13.33;67.64;98679.88;5043009;28;45553;-79
2023/04/12 02:31:41;;;;;;;;;6.75;5.00;;;;;13.31;67.61;98672.94;5052528;28;45517;-79
2023/04/12 02:34:07;;;;;;;;;7.00;7.00;;;;;13.31;67.65;98670.31;5049348;28;45730;-80
2023/04/12 02:36:33;;;;;;;;;11.00;8.50;;;;;13.30;67.83;98668.59;5053585;28;45486;-80
2023/04/12 02:38:59;;;;;;;;;8.00;8.00;;;;;13.30;67.83;98658.00;5053599;28;45579;-78
2023/04/12 02:41:25;;;;;;;;;5.25;5.00;;;;;13.28;67.70;98669.53;5060187;28;45454;-79
2023/04/12 02:43:50;;;;;;;;;8.00;6.00;;;;;13.30;67.70;98665.94;5063188;28;47115;-79
2023/04/12 02:46:24;;;;;;;;;8.00;7.00;;;;;13.29;68.20;98662.44;5042130;28;45480;-80
2023/04/12 02:48:50;;;;;;;;;11.75;9.00;;;;;13.28;68.03;98664.25;5055651;28;45425;-79
2023/04/12 02:51:16;;;;;;;;;6.50;6.50;;;;;13.26;67.82;98659.97;5043259;28;45543;-79
2023/04/12 02:53:41;;;;;;;;;7.00;7.00;;;;;13.25;67.55;98651.19;5062570;28;46133;-79
2023/04/12 02:56:07;;;;;;;;;8.25;7.00;;;;;13.24;67.88;98652.13;5066225;28;45525;-79
2023/04/12 02:58:34;;;;;;;;;5.00;5.00;;;;;13.24;67.98;98648.63;5059194;28;45373;-79
2023/04/12 03:00:59;;;;;;;;;6.25;6.25;;;;;13.22;67.66;98646.09;5037519;28;45360;-79
2023/04/12 03:03:27;;;;;;;;;9.00;7.75;;;;;13.20;68.07;98636.53;5056975;28;46334;-79
2023/04/12 03:05:53;;;;;;;;;7.75;6.75;;;;;13.22;68.11;98642.59;5049090;28;45419;-79
2023/04/12 03:08:19;;;;;;;;;10.50;8.50;;;;;13.22;68.40;98653.19;5051886;27;45456;-79
2023/04/12 03:10:44;;;;;;;;;8.25;8.25;;;;;13.22;68.49;98642.59;5050272;28;45431;-79
2023/04/12 03:13:10;;;;;;;;;8.50;8.50;;;;;13.20;68.41;98632.09;5064415;27;47286;-79
2023/04/12 03:15:35;;;;;;;;;8.25;8.25;;;;;13.20;68.64;98625.94;5056610;28;45447;-78
2023/04/12 03:18:01;;;;;;;;;6.50;6.50;;;;;13.20;68.78;98625.94;5057199;28;45598;-79
2023/04/12 03:20:27;;;;;;;;;9.50;8.50;;;;;13.19;68.81;98633.03;5056197;28;45498;-79
2023/04/12 03:22:52;;;;;;;;;9.75;8.25;;;;;13.18;68.89;98618.09;5065123;28;45503;-79
2023/04/12 03:25:18;;;;;;;;;10.00;9.00;;;;;13.16;68.97;98619.97;5065930;27;45398;-79
2023/04/12 03:27:44;;;;;;;;;10.00;10.00;;;;;13.15;69.11;98620.06;5059634;28;45510;-79
2023/04/12 03:30:12;;;;;;;;;9.50;9.50;;;;;13.13;69.17;98613.97;5063235;28;45382;-78
2023/04/12 03:32:41;;;;;;;;;8.50;8.25;;;;;13.12;69.33;98610.47;5043470;28;46910;-80
2023/04/12 03:35:08;;;;;;;;;10.00;8.00;;;;;13.11;69.39;98607.91;5053873;28;45462;-79
2023/04/12 03:37:33;;;;;;;;;11.00;9.50;;;;;13.11;69.20;98602.59;5043272;28;45358;-79
2023/04/12 03:39:59;;;;;;;;;8.00;7.00;;;;;13.12;69.40;98596.38;5060085;28;45485;-79
2023/04/12 03:42:26;;;;;;;;;9.00;8.25;;;;;13.12;69.11;98599.88;5064424;27;46225;-79
2023/04/12 03:44:51;;;;;;;;;9.75;9.50;;;;;13.10;69.08;98599.09;5059427;28;45742;-79
2023/04/12 03:47:18;;;;;;;;;9.00;9.00;;;;;13.08;68.86;98608.94;5056272;28;45476;-79
2023/04/12 03:49:43;;;;;;;;;8.25;8.00;;;;;13.06;68.96;98596.75;5056180;28;45449;-79
2023/04/12 03:52:09;;;;;;;;;8.00;7.00;;;;;13.08;68.65;98594.84;5055988;28;45600;-79
2023/04/12 03:54:34;;;;;;;;;7.00;7.00;;;;;13.06;68.79;98591.47;5046654;28;45483;-79
2023/04/12 03:57:00;;;;;;;;;7.75;6.75;;;;;13.07;68.94;98595.81;5051086;28;45420;-79
2023/04/12 03:59:27;;;;;;;;;5.50;5.25;;;;;13.07;68.46;98590.53;5054583;28;45364;-78
2023/04/12 04:01:53;;;;;;;;;7.00;6.50;;;;;13.06;68.90;98584.38;5054112;28;45439;-79
2023/04/12 04:04:20;;;;;;;;;7.00;6.25;;;;;13.05;68.79;98580.03;5057993;28;45393;-79
2023/04/12 04:06:45;;;;;;;;;5.75;5.75;;;;;13.06;68.90;98587.03;5044017;28;45380;-79
2023/04/12 04:09:11;;;;;;;;;10.00;8.50;;;;;13.07;68.70;98590.53;5050331;28;45360;-80
2023/04/12 04:11:36;;;;;;;;;8.50;6.50;;;;;13.07;68.64;98579.94;5067578;28;45509;-79
2023/04/12 04:14:02;;;;;;;;;13.75;7.25;;;;;13.09;68.49;98581.53;5061573;27;45455;-79
2023/04/12 04:16:29;;;;;;;;;8.25;6.00;;;;;13.11;68.53;98578.78;5075976;27;45438;-79
2023/04/12 04:18:55;;;;;;;;;8.25;8.25;;;;;13.13;68.31;98582.19;5056092;28;45408;-79
2023/04/12 04:21:21;;;;;;;;;6.00;4.75;;;;;13.13;67.35;98571.63;5038616;28;46303;-79
2023/04/12 04:23:47;;;;;;;;;7.00;5.50;;;;;13.16;67.44;98571.47;5035050;28;45373;-79
2023/04/12 04:26:14;;;;;;;;;5.50;5.50;;;;;13.15;67.14;98578.56;5047548;28;45406;-79
2023/04/12 04:28:43;;;;;;;;;4.50;4.00;;;;;13.15;66.27;98581.19;5053559;28;45573;-81
2023/04/12 04:31:10;;;;;;;;;5.00;5.00;;;;;13.13;65.98;98580.41;5053290;28;46714;-80
2023/04/12 04:33:36;;;;;;;;;4.50;4.25;;;;;13.12;66.06;98577.84;5041415;28;45502;-81
2023/04/12 04:36:05;;;;;;;;;4.75;4.75;;;;;13.08;65.69;98584.25;5054947;28;45520;-81
2023/04/12 04:38:31;;;;;;;;;4.75;4.00;;;;;13.05;65.58;98581.81;5052331;28;45604;-81
2023/04/12 04:41:03;;;;;;;;;4.00;4.00;;;;;13.03;65.46;98560.72;5056573;28;45586;-80
2023/04/12 04:43:29;;;;;;;;;4.00;4.00;;;;;13.06;65.78;98565.00;5042773;28;45302;-80
2023/04/12 04:45:59;;;;;;;;;5.00;5.00;;;;;13.05;65.52;98569.44;5048647;28;45377;-80
2023/04/12 04:48:25;;;;;;;;;6.50;5.00;;;;;13.06;65.78;98571.13;5054128;28;45583;-81
2023/04/12 04:50:51;;;;;;;;;5.75;4.00;;;;;13.07;65.53;98572.00;5062899;28;45576;-80
2023/04/12 04:53:19;;;;;;;;;7.00;5.00;;;;;13.07;65.41;98567.53;5052201;28;45415;-81
2023/04/12 04:55:46;;;;;;;;;7.50;6.75;;;;;13.05;65.88;98565.94;5044293;28;45411;-80
2023/04/12 04:58:12;;;;;;;;;7.50;6.25;;;;;13.05;66.50;98569.44;5054935;28;45404;-81
2023/04/12 05:00:38;;;;;;;;;6.75;6.75;;;;;13.03;66.92;98565.16;5053165;28;45511;-80
2023/04/12 05:03:03;;;;;;;;;6.50;6.50;;;;;13.00;67.25;98563.56;5043869;28;45431;-81
2023/04/12 05:05:29;;;;;;;;;8.00;8.00;;;;;13.02;67.49;98579.34;5053500;28;45390;-80
2023/04/12 05:07:56;;;;;;;;;8.75;8.75;;;;;12.99;67.63;98575.06;5063013;28;45522;-80
2023/04/12 05:10:21;;;;;;;;;10.00;8.00;;;;;12.98;67.97;98583.09;5061490;28;48207;-81
2023/04/12 05:12:47;;;;;;;;;6.25;6.25;;;;;12.98;68.30;98578.66;5055021;28;45250;-80
2023/04/12 05:15:13;;;;;;;;;7.50;7.00;;;;;12.99;68.08;98587.44;5065184;28;45356;-81
2023/04/12 05:17:38;;;;;;;;;6.50;6.25;;;;;12.98;68.38;98569.88;5044914;28;45392;-81
2023/04/12 05:20:06;;;;;;;;;10.00;7.00;;;;;12.96;68.63;98569.97;5060996;28;46193;-81
2023/04/12 05:22:32;;;;;;;;;9.00;6.00;;;;;12.98;68.61;98567.22;5051864;28;45593;-78
2023/04/12 05:24:58;;;;;;;;;9.50;6.75;;;;;13.02;68.50;98571.41;5054552;27;45417;-68
2023/04/12 05:27:25;;;;;;;;;5.00;5.00;;;;;13.08;68.40;98576.31;5044304;28;45419;-69
2023/04/12 05:29:50;;;;;;;;;6.25;6.25;;;;;13.11;68.35;98569.06;5045086;28;45504;-69
2023/04/12 05:32:16;;;;;;;;;6.50;6.00;;;;;13.13;68.52;98563.66;5044078;28;45461;-69
2023/04/12 05:34:42;;;;;;;;;6.00;6.00;;;;;13.15;68.55;98559.19;5053301;28;45350;-69
2023/04/12 05:37:08;;;;;;;;;8.25;8.25;;;;;13.16;68.29;98547.66;5046293;28;45480;-69
2023/04/12 05:39:33;;;;;;;;;6.50;6.25;;;;;13.16;68.25;98551.16;5057309;28;48501;-68
2023/04/12 05:41:59;;;;;;;;;7.25;5.75;;;;;13.15;68.39;98546.78;5048516;28;45369;-68
2023/04/12 05:44:24;;;;;;;;;7.75;7.50;;;;;13.15;68.14;98540.66;5053206;28;45348;-68
2023/04/12 05:46:49;;;;;;;;;6.25;5.25;;;;;13.15;68.11;98543.28;5049212;28;45374;-68
2023/04/12 05:49:15;;;;;;;;;10.00;10.00;;;;;13.14;68.09;98545.06;5052857;28;46268;-68
2023/04/12 05:51:40;;;;;;;;;7.00;6.00;;;;;13.17;68.07;98549.34;5048406;28;45371;-68
2023/04/12 05:54:06;;;;;;;;;10.00;8.00;;;;;13.16;68.17;98548.50;5050581;28;45799;-68
2023/04/12 05:56:32;;;;;;;;;6.00;6.00;;;;;13.16;68.19;98545.00;5047764;28;45357;-68
2023/04/12 05:58:57;;;;;;;;;8.25;7.50;;;;;13.15;68.25;98536.22;5057512;27;46364;-68
2023/04/12 06:01:30;;;;;;;;;7.50;7.00;;;;;13.16;68.19;98542.34;5053501;28;45414;-68
2023/04/12 06:04:02;;;;;;;;;8.25;8.25;;;;;13.17;68.26;98550.22;5053394;28;45582;-69
2023/04/12 06:06:29;;;;;;;;;10.25;10.00;;;;;13.21;68.13;98550.88;5034703;28;45623;-68
2023/04/12 06:08:56;;;;;;;;;11.75;10.00;;;;;13.22;68.25;98549.94;5044578;28;47460;-69
2023/04/12 06:11:23;;;;;;;;;8.75;7.75;;;;;13.22;68.06;98545.50;5032458;28;45404;-69
2023/04/12 06:13:48;;;;;;;;;9.00;9.00;;;;;13.23;67.97;98547.19;5046930;28;45424;-68
2023/04/12 06:16:13;;;;;;;;;10.00;8.50;;;;;13.25;68.11;98544.44;5041754;28;45574;-68
2023/04/12 06:18:39;;;;;;;;;9.75;9.00;;;;;13.25;68.15;98550.59;5062134;28;46494;-69
2023/04/12 06:21:04;;;;;;;;;9.00;8.75;;;;;13.27;67.99;98555.78;5050660;28;45441;-68
2023/04/12 06:23:30;;;;;;;;;7.50;7.25;;;;;13.27;68.22;98559.28;5068039;28;45438;-68
2023/04/12 06:25:55;;;;;;;;;9.50;8.00;;;;;13.32;68.00;98564.31;5051527;28;45471;-69
2023/04/12 06:28:20;;;;;;;;;11.00;9.00;;;;;13.33;67.88;98573.97;5050933;28;45476;-69
2023/04/12 06:30:46;;;;;;;;;9.50;9.50;;;;;13.38;67.88;98574.53;5051256;28;45451;-68
2023/04/12 06:33:11;;;;;;;;;10.25;9.75;;;;;13.40;68.00;98575.31;5053876;28;45518;-68
2023/04/12 06:35:37;;;;;;;;;13.00;12.00;;;;;13.40;68.00;98562.06;5044330;28;46475;-68
2023/04/12 06:38:02;;;;;;;;;14.25;8.00;;;;;13.44;68.03;98560.06;5052227;28;46449;-71
2023/04/12 06:40:27;;;;;;;;;7.00;7.00;;;;;13.50;67.77;98573.78;5050994;28;45338;-68
2023/04/12 06:42:53;;;;;;;;;9.50;9.50;;;;;13.56;67.39;98576.09;5052492;28;45410;-69
2023/04/12 06:45:18;;;;;;;;;8.00;8.00;;;;;13.62;67.52;98578.34;5049298;28;45501;-68
2023/04/12 06:47:44;;;;;;;;;13.00;10.00;;;;;13.68;67.35;98570.97;5046467;28;48157;-68
2023/04/12 06:50:09;;;;;;;;;9.25;7.75;;;;;13.76;66.88;98580.13;5051759;28;45383;-69
2023/04/12 06:52:35;;;;;;;;;8.00;8.00;;;;;13.79;66.96;98577.31;5051896;28;45468;-68
2023/04/12 06:55:00;;;;;;;;;11.50;10.25;;;;;13.84;66.76;98574.38;5048744;28;45454;-69
2023/04/12 06:57:25;;;;;;;;;11.50;9.75;;;;;13.88;66.71;98579.41;5049196;28;45419;-68
2023/04/12 06:59:51;;;;;;;;;9.50;8.25;;;;;13.90;66.64;98579.31;5063046;28;45393;-69
2023/04/12 07:02:17;;;;;;;;;11.25;10.00;;;;;13.92;66.40;98580.03;5049903;28;45371;-69
2023/04/12 07:04:42;;;;;;;;;9.00;9.00;;;;;13.95;66.17;98580.69;5062050;28;45604;-69
2023/04/12 07:07:09;;;;;;;;;9.00;8.50;;;;;14.02;66.25;98573.22;5048665;28;45467;-68
2023/04/12 07:09:34;;;;;;;;;7.50;7.50;;;;;14.07;66.04;98565.84;5047627;28;45523;-68
2023/04/12 07:12:01;;;;;;;;;8.50;6.75;;;;;14.12;65.84;98569.03;5048198;28;45428;-68
2023/04/12 07:14:27;;;;;;;;;8.75;8.75;;;;;14.17;65.47;98566.97;5051529;28;45575;-68
2023/04/12 07:16:52;;;;;;;;;11.75;8.00;;;;;14.17;65.35;98543.09;5051770;28;45524;-68
2023/04/12 07:19:17;;;;;;;;;10.50;9.50;;;;;14.22;65.41;98551.63;5049833;28;45384;-68
2023/04/12 07:21:43;;;;;;;;;8.00;7.50;;;;;14.27;65.50;98553.97;5047867;28;45415;-68
2023/04/12 07:24:08;;;;;;;;;11.75;10.25;;;;;14.29;65.20;98550.25;5046603;28;45416;-68
2023/04/12 07:26:33;;;;;;;;;16.50;16.50;;;;;14.31;65.29;98548.38;5052244;28;46444;-68
2023/04/12 07:28:59;;;;;;;;;13.00;12.00;;;;;14.31;65.17;98543.06;5047629;28;45406;-67
2023/04/12 07:31:24;;;;;;;;;9.75;9.75;;;;;14.35;65.08;98550.81;5042094;28;45371;-68
2023/04/12 07:33:50;;;;;;;;;13.00;12.25;;;;;14.31;64.96;98558.97;5053943;28;45506;-67
2023/04/12 07:36:19;;;;;;;;;13.50;12.00;;;;;14.31;65.15;98545.72;5039922;28;45471;-68
2023/04/12 07:38:44;;;;;;;;;9.25;8.50;;;;;14.34;65.23;98539.38;5053089;28;45535;-69
2023/04/12 07:41:10;;;;;;;;;10.50;10.50;;;;;14.39;65.34;98539.06;5055793;28;45449;-69
2023/04/12 07:43:35;;;;;;;;;11.00;9.00;;;;;14.43;64.96;98533.47;5055118;28;45441;-68
2023/04/12 07:46:06;;;;;;;;;9.50;7.50;;;;;14.46;64.55;98535.09;5049136;28;45546;-68
2023/04/12 07:48:31;;;;;;;;;13.25;11.50;;;;;14.46;64.96;98532.44;5054910;28;45366;-69
2023/04/12 07:50:57;;;;;;;;;12.25;12.00;;;;;14.48;64.28;98533.19;5051149;28;45424;-69
2023/04/12 07:53:27;;;;;;;;;11.25;10.25;;;;;14.48;64.49;98543.81;5054638;28;45402;-69
2023/04/12 07:55:53;;;;;;;;;15.25;15.25;;;;;14.49;64.42;98548.16;5051546;28;45386;-69
2023/04/12 07:58:21;;;;;;;;;13.50;13.00;;;;;14.42;64.52;98546.84;5055077;28;45487;-69
2023/04/12 08:00:47;;;;;;;;;12.50;10.75;;;;;14.35;64.50;98550.81;5054151;28;45482;-69
2023/04/12 08:03:14;;;;;;;;;9.00;8.00;;;;;14.27;64.46;98553.97;5051587;28;45674;-67
2023/04/12 08:05:40;;;;;;;;;10.75;10.75;;;;;14.21;64.82;98544.63;5044727;28;47409;-68
2023/04/12 08:08:08;;;;;;;;;10.75;10.75;;;;;14.18;65.03;98549.25;5052564;28;45698;-69
2023/04/12 08:10:35;;;;;;;;;8.50;7.75;;;;;14.13;64.85;98546.03;5046630;28;45370;-69
2023/04/12 08:13:00;;;;;;;;;10.00;10.00;;;;;14.09;65.11;98553.31;5054764;28;45384;-69
2023/04/12 08:15:26;;;;;;;;;11.25;11.25;;;;;14.04;65.00;98562.53;5047690;28;46175;-68
2023/04/12 08:17:51;;;;;;;;;13.50;12.25;;;;;13.97;65.45;98573.50;5055079;28;45376;-67
2023/04/12 08:20:16;;;;;;;;;11.00;10.00;;;;;13.93;65.08;98581.75;5048463;28;45885;-69
2023/04/12 08:22:44;;;;;;;;;9.75;8.25;;;;;13.90;65.72;98577.50;5071000;27;45517;-69
2023/04/12 08:25:09;;;;;;;;;9.25;9.25;;;;;13.90;65.99;98558.09;5054027;28;46598;-70
2023/04/12 08:27:35;;;;;;;;;15.00;11.75;;;;;13.92;66.05;98549.09;5045060;28;45414;-68
2023/04/12 08:30:01;;;;;;;;;10.75;10.75;;;;;13.94;65.84;98546.34;5049752;28;45362;-69
2023/04/12 08:32:26;;;;;;;;;12.25;9.00;;;;;14.01;65.67;98550.31;5046424;28;45606;-69
2023/04/12 08:34:51;;;;;;;;;10.75;8.75;;;;;14.13;65.49;98546.88;5051636;28;46198;-67
2023/04/12 08:37:17;;;;;;;;;13.50;10.50;;;;;14.29;65.25;98544.09;5047023;28;45380;-69
2023/04/12 08:39:42;;;;;;;;;11.25;9.75;;;;;14.46;65.08;98562.47;5050330;28;45412;-69
2023/04/12 08:42:09;;;;;;;;;12.00;11.00;;;;;14.61;65.19;98550.84;5048687;28;45570;-68
2023/04/12 08:44:37;;;;;;;;;12.75;12.50;;;;;14.76;64.76;98551.66;5053447;28;45389;-67
2023/04/12 08:47:04;;;;;;;;;12.00;11.25;;;;;14.90;64.48;98554.25;5049702;28;45498;-68
2023/04/12 08:49:31;;;;;;;;;16.75;12.50;;;;;15.04;64.38;98552.47;5053619;28;45416;-68
2023/04/12 08:52:04;;;;;;;;;13.00;12.75;;;;;15.14;63.72;98551.75;5050220;28;45528;-67
2023/04/12 08:54:33;;;;;;;;;8.75;8.25;;;;;15.21;63.38;98545.06;5053100;28;45479;-68
2023/04/12 08:57:01;;;;;;;;;16.25;14.00;;;;;15.25;63.22;98535.91;5052822;28;45450;-67
2023/04/12 08:59:28;;;;;;;;;11.25;10.50;;;;;15.31;63.09;98524.88;5053723;28;45507;-68
2023/04/12 09:01:55;;;;;;;;;13.50;12.75;;;;;15.42;62.97;98520.63;5052835;28;45543;-67
2023/04/12 09:04:21;;;;;;;;;12.50;12.25;;;;;15.51;62.70;98522.66;5050465;28;46155;-68
2023/04/12 09:06:46;;;;;;;;;16.00;12.75;;;;;15.59;62.42;98523.84;5054039;28;45805;-68
2023/04/12 09:09:12;;;;;;;;;11.50;11.00;;;;;15.73;61.51;98532.69;5052460;28;45400;-68
2023/04/12 09:11:37;;;;;;;;;13.25;11.50;;;;;15.82;61.18;98514.25;5046415;28;45449;-67
2023/04/12 09:14:03;;;;;;;;;15.75;12.75;;;;;15.93;60.71;98511.69;5048447;28;45609;-67
2023/04/12 09:16:41;;;;;;;;;12.50;12.50;;;;;16.05;60.74;98509.97;5053177;28;45444;-67
2023/04/12 09:19:08;;;;;;;;;14.00;13.75;;;;;16.16;60.60;98504.72;5053489;28;45465;-67
2023/04/12 09:21:34;;;;;;;;;10.00;10.00;;;;;16.27;60.03;98501.25;5050827;28;45488;-67
2023/04/12 09:24:12;;;;;;;;;14.25;12.00;;;;;16.38;59.81;98490.69;5062723;28;45640;-67
2023/04/12 09:26:38;;;;;;;;;12.25;9.75;;;;;16.44;59.35;98494.69;5040052;28;45460;-67
2023/04/12 09:29:04;;;;;;;;;14.00;11.50;;;;;16.44;58.22;98492.03;5053022;28;45364;-67
2023/04/12 09:31:30;;;;;;;;;10.50;10.25;;;;;16.42;58.62;98477.03;5053252;28;45349;-68
2023/04/12 09:34:08;;;;;;;;;11.75;10.00;;;;;16.51;58.24;98482.66;5051815;28;45582;-68
2023/04/12 09:36:38;;;;;;;;;10.75;9.25;;;;;16.56;57.78;98480.50;5051458;28;45476;-68
2023/04/12 09:39:04;;;;;;;;;9.50;7.75;;;;;16.56;57.41;98483.16;5051178;28;45438;-67
2023/04/12 09:41:30;;;;;;;;;7.50;6.50;;;;;16.55;57.20;98476.16;5039860;28;45567;-67
2023/04/12 09:43:57;;;;;;;;;7.75;6.00;;;;;16.53;56.42;98464.75;5050909;28;45453;-68
2023/04/12 09:46:23;;;;;;;;;9.60;7.40;;;;;16.44;55.08;98457.44;5052915;28;45556;-68
2023/04/12 09:48:51;;;;;;;;;10.00;9.25;;;;;16.25;55.76;98458.00;5052171;28;45421;-68
2023/04/12 09:51:27;;;;;;;;;10.50;8.25;;;;;16.04;56.53;98452.44;5042288;28;45492;-67
2023/04/12 09:53:58;;;;;;;;;9.75;9.25;;;;;15.89;56.95;98451.75;5052371;28;46692;-68
2023/04/12 09:56:26;;;;;;;;;13.00;9.00;;;;;15.78;57.21;98438.34;5043195;28;45486;-68
2023/04/12 09:58:52;;;;;;;;;9.25;8.25;;;;;15.71;57.51;98442.44;5052548;28;45456;-68
2023/04/12 10:01:21;;;;;;;;;9.00;9.00;;;;;15.66;57.54;98434.78;5052168;28;45575;-68
2023/04/12 10:03:47;;;;;;;;;10.00;10.00;;;;;15.60;57.57;98440.50;5052097;28;46265;-68
2023/04/12 10:06:14;;;;;;;;;11.75;10.00;;;;;15.58;58.09;98439.81;5053193;28;45610;-68
2023/04/12 10:08:40;;;;;;;;;12.75;10.00;;;;;15.54;58.52;98445.41;5052556;28;45484;-68
2023/04/12 10:11:06;;;;;;;;;9.00;9.00;;;;;15.55;58.30;98437.38;5053025;28;45496;-68
2023/04/12 10:13:32;;;;;;;;;11.25;9.00;;;;;15.60;58.67;98435.19;5050062;28;48258;-68
2023/04/12 10:15:59;;;;;;;;;9.50;9.00;;;;;15.67;58.50;98427.66;5053116;28;45522;-68
2023/04/12 10:18:26;;;;;;;;;9.00;9.00;;;;;15.66;58.59;98424.16;5053243;28;45500;-68
2023/04/12 10:20:51;;;;;;;;;7.75;6.00;;;;;15.67;58.89;98425.84;5053197;28;45462;-68
2023/04/12 10:23:17;;;;;;;;;12.50;12.50;;;;;15.68;58.12;98424.03;5062350;28;47450;-68
2023/04/12 10:25:45;;;;;;;;;10.50;8.75;;;;;15.65;58.23;98408.31;5053262;28;45390;-68
2023/04/12 10:28:20;;;;;;;;;11.00;10.00;;;;;15.63;58.42;98402.25;5036609;28;45474;-68
2023/04/12 10:30:48;;;;;;;;;6.50;6.50;;;;;15.68;58.14;98405.44;5033135;28;45488;-68
2023/04/12 10:33:15;;;;;;;;;7.25;7.25;;;;;15.71;57.40;98415.84;5032920;28;45401;-67
2023/04/12 10:35:47;;;;;;;;;9.20;6.80;;;;;15.74;57.75;98409.47;5033302;28;45412;-69
2023/04/12 10:38:13;;;;;;;;;10.25;9.00;;;;;15.75;57.62;98405.84;5032983;28;45354;-68
2023/04/12 10:41:17;;;;;;;;;10.00;9.75;;;;;15.76;57.68;98392.44;5033155;28;45377;-68
2023/04/12 10:43:48;;;;;;;;;11.75;11.25;;;;;15.91;58.05;98379.84;5043949;28;46642;-68
2023/04/12 10:46:45;;;;;;;;;11.80;8.40;;;;;16.15;57.56;98383.34;5052517;28;45519;-68
2023/04/12 10:49:12;;;;;;;;;7.75;7.75;;;;;16.39;56.86;98386.84;5052536;28;45532;-68
2023/04/12 10:51:39;;;;;;;;;6.75;6.75;;;;;16.56;55.88;98388.22;5053029;28;45463;-68
2023/04/12 10:54:08;;;;;;;;;6.25;6.25;;;;;16.77;55.63;98382.22;5052279;28;45380;-67
2023/04/12 10:56:34;;;;;;;;;9.50;9.50;;;;;16.92;55.54;98386.38;5052668;28;45508;-67
2023/04/12 10:59:01;;;;;;;;;7.75;6.00;;;;;17.08;54.93;98378.91;5052532;28;45585;-67
2023/04/12 11:01:27;;;;;;;;;14.75;10.75;;;;;17.21;54.64;98378.78;5052817;28;45741;-67
2023/04/12 11:04:20;;;;;;;;;10.75;10.00;;;;;17.39;54.48;98378.16;5052710;28;46351;-67
2023/04/12 11:06:51;;;;;;;;;7.00;7.00;;;;;17.55;53.30;98356.47;5038676;28;45389;-67
2023/04/12 11:09:25;;;;;;;;;5.75;5.25;;;;;17.61;53.58;98345.28;5035882;28;45385;-68
2023/04/12 11:12:03;;;;;;;;;6.00;6.00;;;;;17.76;53.34;98344.06;5035729;28;45564;-68
2023/04/12 11:14:50;;;;;;;;;6.25;6.25;;;;;17.90;53.23;98337.63;5035918;28;46654;-68
2023/04/12 11:17:15;;;;;;;;;6.00;6.00;;;;;18.03;52.04;98342.78;5036146;28;45443;-68
2023/04/12 11:19:45;;;;;;;;;9.00;7.00;;;;;18.12;52.26;98350.00;5036369;28;45385;-68
2023/04/12 11:22:16;;;;;;;;;11.25;6.75;;;;;18.28;51.64;98334.41;5041849;28;45452;-67
2023/04/12 11:24:47;;;;;;;;;6.25;6.25;;;;;18.40;50.69;98335.22;5062339;27;46367;-68
2023/04/12 11:27:15;;;;;;;;;5.60;5.60;;;;;18.47;51.00;98331.88;5056282;28;45403;-68
2023/04/12 11:29:42;;;;;;;;;4.80;4.80;;;;;18.53;50.71;98330.53;5055746;28;45443;-68
2023/04/12 11:32:12;;;;;;;;;5.00;5.00;;;;;18.61;49.40;98324.56;5055931;28;45685;-68